Weather observations for the past three days for
Olathe, New Century Aircenter
Metric (Imperial)
Date Time (cdt) Wind (kph) Vis. (km) Weather Sky Cond. Temperature (ºC) Relative Humidity Wind Chill (°C) Heat Index (°C) Pressure Precipitation (cm)
Air Dwpt 6 hour altimeter (cm) sea level (mb) 1 hr 3 hr 6 hr
Max. Min.
02 17:53 S 15 16.09 Fair CLR 36.7 17.2 32% 38 75.95 1011.1
02 16:53 S 20 16.09 Fair CLR 37.2 16.7 30% 38 75.97 1011.3
02 15:53 S 19 G 37 16.09 Fair CLR 37.2 17.8 32% 39 76.02 1012.0
02 14:53 S 26 G 43 16.09 A Few Clouds FEW075 37.2 18.3 33% 39 76.07 1012.6
02 13:53 S 28 G 44 16.09 Fair CLR 36.7 18.9 35% 39 76.12 1013.5
02 12:53 S 26 16.09 Fair CLR 36.1 19.4 36.1 22.2 37% 38 76.17 1014.2
02 11:53 S 26 16.09 Fair CLR 34.4 20 43% 37 76.23 1014.7
02 10:53 S 30 G 44 16.09 Fair CLR 32.8 19.4 45% 35 76.25 1015.1
02 09:53 SW 24 G 35 16.09 A Few Clouds FEW100 31.1 20 52% 33 76.23 1015.0
02 08:53 S 17 16.09 Fair CLR 27.8 19.4 60% 29 76.25 1015.3
02 07:53 S 11 16.09 Fair CLR 24.4 18.9 72% 25 76.23 1015.0
02 06:53 S 9 16.09 Fair CLR 22.8 18.3 25.6 22.8 76% 76.2 1014.4
02 05:53 S 11 16.09 Fair CLR 22.8 18.3 76% 76.17 1014.1
02 04:53 S 11 16.09 Fair CLR 23.3 18.3 74% 76.15 1013.7
02 03:53 S 11 16.09 Fair CLR 22.8 17.8 74% 76.12 1013.5
02 02:53 S 11 16.09 Fair CLR 23.9 17.8 69% 25 76.1 1013.1
02 01:53 S 11 16.09 Fair CLR 24.4 17.8 67% 25 76.1 1013.2
02 00:53 S 9 16.09 Fair CLR 25.6 17.8 33.9 23.9 62% 27 76.1 1013.1
01 23:53 S 9 16.09 Fair CLR 25 17.8 64% 26 76.12 1013.3
01 22:53 S 11 16.09 Fair CLR 26.1 17.2 58% 27 76.12 1013.4
01 21:53 S 11 16.09 Fair CLR 27.2 17.2 54% 28 76.1 1013.0
01 20:53 S 9 16.09 Fair CLR 27.8 17.8 55% 29 76.07 1012.8
01 19:53 S 11 16.09 Fair CLR 30.6 17.2 45% 31 76.05 1012.5
01 18:53 S 9 16.09 Fair CLR 33.9 17.2 37.8 33.9 37% 35 76.07 1012.7
01 17:53 S 20 16.09 Fair CLR 36.1 15 28% 36 76.05 1012.5
01 16:53 SW 28 G 43 16.09 Fair CLR 37.2 15 27% 37 76.07 1012.9
01 15:53 S 30 G 43 16.09 Fair CLR 37.2 15 27% 37 76.1 1013.2
01 14:53 SW 33 G 41 16.09 Fair and Breezy CLR 37.8 14.4 25% 38 76.15 1013.7
01 13:53 S 19 16.09 Fair CLR 37.2 15.6 28% 37 76.2 1014.3
01 12:53 S 22 G 33 16.09 Fair CLR 36.1 16.7 36.1 20.6 32% 37 76.25 1015.1
01 11:53 SW 20 G 35 16.09 Fair CLR 35 17.2 35% 36 76.3 1015.7
01 10:53 SW 22 16.09 Fair CLR 32.8 17.2 39% 33 76.3 1015.9
01 09:53 S 19 16.09 Fair CLR 29.4 17.8 50% 30 76.3 1015.9
01 08:53 S 17 16.09 Fair CLR 26.7 18.3 60% 28 76.33 1016.3
01 07:53 S 7 16.09 Fair CLR 22.8 17.8 74% 76.3 1016.1
01 06:53 S 9 16.09 Fair CLR 21.1 16.7 24.4 20 76% 76.28 1015.5
01 05:53 S 6 16.09 Fair CLR 20 16.7 81% 76.25 1015.0
01 04:53 S 13 16.09 Fair CLR 21.7 16.7 73% 76.23 1014.6
01 03:53 S 11 16.09 Fair CLR 22.2 16.7 71% 76.17 1014.1
01 02:53 S 6 16.09 Fair CLR 22.2 16.7 71% 76.17 1013.9
01 01:53 S 6 16.09 Fair CLR 22.8 16.7 69% 76.17 1014.0
01 00:53 S 7 16.09 Fair CLR 23.3 16.7 34.4 22.8 67% 76.17 1014.3
31 23:53 S 6 16.09 Fair CLR 23.3 16.7 67% 76.17 1014.1
31 22:53 S 13 16.09 Fair CLR 26.1 16.7 56% 27 76.15 1013.8
31 21:53 S 13 16.09 Fair CLR 26.7 17.8 58% 28 76.12 1013.5
31 20:53 S 11 16.09 Fair CLR 27.8 18.3 56% 29 76.1 1013.2
31 19:53 S 9 16.09 Fair CLR 31.1 18.3 46% 32 76.07 1012.7
31 18:53 S 7 16.09 Fair CLR 34.4 18.3 38.3 34.4 38% 36 76.05 1012.5
31 17:53 S 15 16.09 Fair CLR 36.7 17.2 32% 38 76.05 1012.2
31 16:53 S 20 16.09 Fair CLR 36.7 15.6 28% 37 76.07 1012.5
31 15:53 SW 19 G 39 16.09 Fair CLR 37.8 16.7 29% 39 76.07 1012.5
31 14:53 SW 28 G 41 16.09 Fair CLR 37.8 17.2 30% 39 76.1 1012.8
31 13:53 S 28 G 41 16.09 Fair CLR 36.7 17.2 32% 38 76.1 1013.1
31 12:53 SW 24 G 43 16.09 Fair CLR 35.6 18.3 35.6 22.8 36% 37 76.15 1013.8
31 11:53 SW 30 G 43 16.09 Fair CLR 33.3 18.3 41% 34 76.2 1014.4
31 10:53 SW 28 16.09 Fair CLR 32.2 17.2 41% 33 76.23 1014.6
31 09:53 SW 26 G 41 16.09 Fair CLR 30 17.2 46% 30 76.2 1014.5
31 08:53 SW 20 16.09 Partly Cloudy SCT110 27.2 17.2 54% 28 76.2 1014.5
31 07:53 S 15 16.09 A Few Clouds FEW110 24.4 17.2 64% 25 76.2 1014.5
31 06:53 S 9 16.09 Fair CLR 22.8 16.7 26.7 22.8 69% 76.15 1013.7
31 05:53 S 15 16.09 Fair CLR 24.4 16.7 62% 25 76.1 1013.1
31 04:53 S 13 16.09 Fair CLR 25 16.7 60% 26 76.07 1012.5
31 03:53 S 15 16.09 Fair CLR 25 16.1 58% 26 76.05 1012.3
31 02:53 S 11 16.09 Fair CLR 25 16.1 58% 26 76.05 1012.3
31 01:53 S 11 16.09 Fair CLR 25.6 16.1 56% 26 76 1011.8
31 00:53 S 11 16.09 Fair CLR 26.7 16.1 35 26.7 52% 27 75.97 1011.4
30 23:53 S 17 16.09 Fair CLR 27.8 16.1 49% 28 75.95 1011.1
30 22:53 S 17 16.09 Fair CLR 28.3 16.7 49% 29 75.97 1011.2
30 21:53 S 17 16.09 Fair CLR 28.3 16.7 49% 29 75.95 1011.1
30 20:53 S 15 16.09 Fair CLR 28.9 16.7 48% 29 75.92 1010.8
30 19:53 S 11 16.09 Fair CLR 31.1 16.7 42% 31 75.87 1010.2
30 18:53 S 20 16.09 Fair CLR 35 16.7 37.8 34.4 34% 35 75.84 1009.7
Date Time (cdt) Wind (kph) Vis. (km) Weather Sky Cond. Air Dwpt Max. Min. Relative Humidity Wind Chill (°C) Heat Index (°C) altimeter (cm) sea level (mb) 1 hr 3 hr 6 hr
6 hour
Temperature (ºC) Pressure Precipitation (cm)